Japan Airlines Virtual Airport Information Service

Tokyo Narita International Airport

ICAO: RJAA Country: Japan
Latitude: 35.7647 Longitude: 140.386
Latest Arrival : CSN623 (ZYCC-RJAA) Latest Departure : JAL597 (RJAA-RKPK)


WX CaptureLIVE
Data provided by noaa.gov | Fetched at 08:00:15

METAR : RJAA 090730Z 18010KT 9999 -SHRA FEW015 BKN130 24/22 Q1010 NOSIG

TAF : RJAA 090505Z 0906/1012 18006KT 9000 -SHRA FEW008 BKN015 TEMPO 0911/0914 3000 SHRA BR FEW005 BKN008


Runway Data for RJAA
Data provided by openaviationdata.com

Runway ID Mag Var Hdg Length Elevation Surface ILS Freq ILS Id ILS Slope
16L -7 156° 8202 ft 135 ft Asphalt 110.7 ITM 3
16R -7 156° 13132 ft 135 ft Asphalt 111.5 IKF 3
34L -7 336° 13132 ft 135 ft Asphalt 111.9 IYQ 3
34R -7 336° 8202 ft 135 ft Asphalt 110.9 ITJ 3

Tokyo Narita International Airport, Japan
Use only for reference purposes



Not for navigational purposes.